sensor_id;sensor_type;location;lat;lon;timestamp;P1;durP1;ratioP1;P2;durP2;ratioP2
70406;SDS011;57821;52.202;0.154;2023-08-24T00:00:19;8.57;;;2.55;;
70406;SDS011;57821;52.202;0.154;2023-08-24T00:03:06;7.53;;;2.05;;
70406;SDS011;57821;52.202;0.154;2023-08-24T00:05:54;10.45;;;2.63;;
70406;SDS011;57821;52.202;0.154;2023-08-24T00:08:41;11.55;;;2.40;;
70406;SDS011;57821;52.202;0.154;2023-08-24T00:11:28;9.32;;;2.70;;
70406;SDS011;57821;52.202;0.154;2023-08-24T00:14:15;9.43;;;2.17;;
70406;SDS011;57821;52.202;0.154;2023-08-24T00:17:02;5.25;;;2.33;;
70406;SDS011;57821;52.202;0.154;2023-08-24T00:19:49;7.32;;;2.10;;
70406;SDS011;57821;52.202;0.154;2023-08-24T00:22:36;8.70;;;2.20;;
70406;SDS011;57821;52.202;0.154;2023-08-24T00:25:24;10.00;;;2.70;;
70406;SDS011;57821;52.202;0.154;2023-08-24T00:28:11;7.93;;;2.38;;
70406;SDS011;57821;52.202;0.154;2023-08-24T00:30:58;7.18;;;2.28;;
70406;SDS011;57821;52.202;0.154;2023-08-24T00:33:46;8.20;;;1.90;;
70406;SDS011;57821;52.202;0.154;2023-08-24T00:36:33;7.63;;;2.22;;
70406;SDS011;57821;52.202;0.154;2023-08-24T00:39:19;9.20;;;2.28;;
70406;SDS011;57821;52.202;0.154;2023-08-24T00:42:06;6.85;;;2.40;;
70406;SDS011;57821;52.202;0.154;2023-08-24T00:44:53;8.15;;;2.35;;
70406;SDS011;57821;52.202;0.154;2023-08-24T00:47:42;8.88;;;2.20;;
70406;SDS011;57821;52.202;0.154;2023-08-24T00:50:30;13.73;;;3.70;;
70406;SDS011;57821;52.202;0.154;2023-08-24T00:53:17;10.93;;;2.20;;
70406;SDS011;57821;52.202;0.154;2023-08-24T00:56:04;8.02;;;2.13;;
70406;SDS011;57821;52.202;0.154;2023-08-24T00:58:52;6.90;;;2.17;;
70406;SDS011;57821;52.202;0.154;2023-08-24T01:01:41;7.25;;;2.20;;
70406;SDS011;57821;52.202;0.154;2023-08-24T01:04:31;8.13;;;2.40;;
70406;SDS011;57821;52.202;0.154;2023-08-24T01:07:18;7.60;;;2.40;;
70406;SDS011;57821;52.202;0.154;2023-08-24T01:10:05;8.85;;;2.40;;
70406;SDS011;57821;52.202;0.154;2023-08-24T01:13:02;6.05;;;2.42;;
70406;SDS011;57821;52.202;0.154;2023-08-24T01:16:00;6.05;;;2.45;;
70406;SDS011;57821;52.202;0.154;2023-08-24T01:18:59;11.13;;;2.22;;
70406;SDS011;57821;52.202;0.154;2023-08-24T01:21:48;9.60;;;2.20;;
70406;SDS011;57821;52.202;0.154;2023-08-24T01:24:38;6.68;;;2.25;;
70406;SDS011;57821;52.202;0.154;2023-08-24T01:27:29;11.07;;;2.70;;
70406;SDS011;57821;52.202;0.154;2023-08-24T01:30:19;12.47;;;2.43;;
70406;SDS011;57821;52.202;0.154;2023-08-24T01:33:06;9.15;;;2.10;;
70406;SDS011;57821;52.202;0.154;2023-08-24T01:35:53;9.65;;;2.47;;
70406;SDS011;57821;52.202;0.154;2023-08-24T01:38:40;8.30;;;2.30;;
70406;SDS011;57821;52.202;0.154;2023-08-24T01:41:29;7.85;;;2.25;;
70406;SDS011;57821;52.202;0.154;2023-08-24T01:44:21;10.07;;;2.15;;
70406;SDS011;57821;52.202;0.154;2023-08-24T01:47:12;6.57;;;2.50;;
70406;SDS011;57821;52.202;0.154;2023-08-24T01:50:01;8.07;;;2.50;;
70406;SDS011;57821;52.202;0.154;2023-08-24T01:52:49;6.97;;;2.40;;
70406;SDS011;57821;52.202;0.154;2023-08-24T01:55:38;7.57;;;1.88;;
70406;SDS011;57821;52.202;0.154;2023-08-24T01:58:25;7.30;;;2.33;;
70406;SDS011;57821;52.202;0.154;2023-08-24T02:01:12;6.90;;;2.40;;
70406;SDS011;57821;52.202;0.154;2023-08-24T02:03:59;8.68;;;2.47;;
70406;SDS011;57821;52.202;0.154;2023-08-24T02:06:47;8.88;;;2.28;;
70406;SDS011;57821;52.202;0.154;2023-08-24T02:09:33;10.07;;;2.10;;
70406;SDS011;57821;52.202;0.154;2023-08-24T02:12:21;6.18;;;2.25;;
70406;SDS011;57821;52.202;0.154;2023-08-24T02:15:08;6.63;;;2.25;;
70406;SDS011;57821;52.202;0.154;2023-08-24T02:17:56;11.98;;;2.67;;
70406;SDS011;57821;52.202;0.154;2023-08-24T02:20:43;7.72;;;2.88;;
70406;SDS011;57821;52.202;0.154;2023-08-24T02:23:30;8.60;;;2.30;;
70406;SDS011;57821;52.202;0.154;2023-08-24T02:26:17;10.85;;;2.80;;
70406;SDS011;57821;52.202;0.154;2023-08-24T02:29:04;7.32;;;2.67;;
70406;SDS011;57821;52.202;0.154;2023-08-24T02:31:51;7.00;;;2.30;;
70406;SDS011;57821;52.202;0.154;2023-08-24T02:34:39;5.72;;;2.33;;
70406;SDS011;57821;52.202;0.154;2023-08-24T02:37:27;7.32;;;2.50;;
70406;SDS011;57821;52.202;0.154;2023-08-24T02:40:14;8.02;;;1.95;;
70406;SDS011;57821;52.202;0.154;2023-08-24T02:43:01;9.02;;;2.00;;
70406;SDS011;57821;52.202;0.154;2023-08-24T02:45:48;9.02;;;2.45;;
70406;SDS011;57821;52.202;0.154;2023-08-24T02:48:36;7.93;;;2.90;;
70406;SDS011;57821;52.202;0.154;2023-08-24T02:51:23;8.98;;;2.67;;
70406;SDS011;57821;52.202;0.154;2023-08-24T02:54:10;7.82;;;2.63;;
70406;SDS011;57821;52.202;0.154;2023-08-24T02:56:56;7.20;;;2.75;;
70406;SDS011;57821;52.202;0.154;2023-08-24T02:59:43;10.32;;;2.95;;
70406;SDS011;57821;52.202;0.154;2023-08-24T03:02:30;10.48;;;2.75;;
70406;SDS011;57821;52.202;0.154;2023-08-24T03:05:17;12.93;;;3.95;;
70406;SDS011;57821;52.202;0.154;2023-08-24T03:08:04;10.70;;;3.78;;
70406;SDS011;57821;52.202;0.154;2023-08-24T03:10:51;8.05;;;3.00;;
70406;SDS011;57821;52.202;0.154;2023-08-24T03:13:39;9.07;;;2.83;;
70406;SDS011;57821;52.202;0.154;2023-08-24T03:16:26;10.38;;;3.08;;
70406;SDS011;57821;52.202;0.154;2023-08-24T03:19:13;10.18;;;2.90;;
70406;SDS011;57821;52.202;0.154;2023-08-24T03:22:00;10.38;;;3.28;;
70406;SDS011;57821;52.202;0.154;2023-08-24T03:24:47;7.55;;;2.80;;
70406;SDS011;57821;52.202;0.154;2023-08-24T03:27:35;11.93;;;3.28;;
70406;SDS011;57821;52.202;0.154;2023-08-24T03:30:21;8.20;;;3.03;;
70406;SDS011;57821;52.202;0.154;2023-08-24T03:33:08;8.10;;;3.13;;
70406;SDS011;57821;52.202;0.154;2023-08-24T03:35:55;8.45;;;2.60;;
70406;SDS011;57821;52.202;0.154;2023-08-24T03:38:42;7.63;;;3.20;;
70406;SDS011;57821;52.202;0.154;2023-08-24T03:41:29;7.65;;;2.80;;
70406;SDS011;57821;52.202;0.154;2023-08-24T03:44:17;7.95;;;3.10;;
70406;SDS011;57821;52.202;0.154;2023-08-24T03:47:04;9.27;;;2.58;;
70406;SDS011;57821;52.202;0.154;2023-08-24T03:49:51;8.45;;;2.92;;
70406;SDS011;57821;52.202;0.154;2023-08-24T03:52:38;6.40;;;3.22;;
70406;SDS011;57821;52.202;0.154;2023-08-24T03:55:25;8.38;;;3.17;;
70406;SDS011;57821;52.202;0.154;2023-08-24T03:58:13;9.43;;;2.70;;
70406;SDS011;57821;52.202;0.154;2023-08-24T04:01:00;7.70;;;2.67;;
70406;SDS011;57821;52.202;0.154;2023-08-24T04:03:47;8.90;;;3.30;;
70406;SDS011;57821;52.202;0.154;2023-08-24T04:06:34;10.13;;;3.15;;
70406;SDS011;57821;52.202;0.154;2023-08-24T04:09:21;7.82;;;3.03;;
70406;SDS011;57821;52.202;0.154;2023-08-24T04:12:08;10.70;;;3.47;;
70406;SDS011;57821;52.202;0.154;2023-08-24T04:14:55;10.68;;;3.10;;
70406;SDS011;57821;52.202;0.154;2023-08-24T04:17:42;8.23;;;3.95;;
70406;SDS011;57821;52.202;0.154;2023-08-24T04:20:30;8.55;;;3.72;;
70406;SDS011;57821;52.202;0.154;2023-08-24T04:23:17;12.07;;;4.25;;
70406;SDS011;57821;52.202;0.154;2023-08-24T04:26:04;8.85;;;4.00;;
70406;SDS011;57821;52.202;0.154;2023-08-24T04:28:51;14.30;;;4.40;;
70406;SDS011;57821;52.202;0.154;2023-08-24T04:31:37;9.15;;;4.10;;
70406;SDS011;57821;52.202;0.154;2023-08-24T04:34:24;9.43;;;4.40;;
70406;SDS011;57821;52.202;0.154;2023-08-24T04:37:11;9.23;;;3.78;;
70406;SDS011;57821;52.202;0.154;2023-08-24T04:39:58;7.28;;;3.65;;
70406;SDS011;57821;52.202;0.154;2023-08-24T04:42:45;11.40;;;4.10;;
70406;SDS011;57821;52.202;0.154;2023-08-24T04:45:32;9.80;;;4.10;;
70406;SDS011;57821;52.202;0.154;2023-08-24T04:48:22;8.85;;;3.55;;
70406;SDS011;57821;52.202;0.154;2023-08-24T04:51:09;8.57;;;3.60;;
70406;SDS011;57821;52.202;0.154;2023-08-24T04:53:56;9.13;;;3.90;;
70406;SDS011;57821;52.202;0.154;2023-08-24T04:56:43;11.40;;;4.40;;
70406;SDS011;57821;52.202;0.154;2023-08-24T04:59:30;10.43;;;3.92;;
70406;SDS011;57821;52.202;0.154;2023-08-24T05:02:17;12.23;;;4.60;;
70406;SDS011;57821;52.202;0.154;2023-08-24T05:05:04;10.73;;;4.03;;
70406;SDS011;57821;52.202;0.154;2023-08-24T05:07:51;11.90;;;4.68;;
70406;SDS011;57821;52.202;0.154;2023-08-24T05:10:38;10.23;;;4.25;;
70406;SDS011;57821;52.202;0.154;2023-08-24T05:13:25;10.95;;;4.53;;
70406;SDS011;57821;52.202;0.154;2023-08-24T05:16:12;9.73;;;4.22;;
70406;SDS011;57821;52.202;0.154;2023-08-24T05:19:00;11.38;;;4.95;;
70406;SDS011;57821;52.202;0.154;2023-08-24T05:21:46;13.40;;;5.28;;
70406;SDS011;57821;52.202;0.154;2023-08-24T05:24:33;17.23;;;4.72;;
70406;SDS011;57821;52.202;0.154;2023-08-24T05:27:20;12.88;;;5.25;;
70406;SDS011;57821;52.202;0.154;2023-08-24T05:30:07;22.80;;;5.78;;
70406;SDS011;57821;52.202;0.154;2023-08-24T05:32:54;12.50;;;5.15;;
70406;SDS011;57821;52.202;0.154;2023-08-24T05:35:42;13.88;;;4.97;;
70406;SDS011;57821;52.202;0.154;2023-08-24T05:38:28;11.63;;;5.78;;
70406;SDS011;57821;52.202;0.154;2023-08-24T05:41:15;13.48;;;6.25;;
70406;SDS011;57821;52.202;0.154;2023-08-24T05:44:02;14.48;;;6.75;;
70406;SDS011;57821;52.202;0.154;2023-08-24T05:46:49;13.38;;;7.43;;
70406;SDS011;57821;52.202;0.154;2023-08-24T05:49:36;14.85;;;6.43;;
70406;SDS011;57821;52.202;0.154;2023-08-24T05:52:23;12.70;;;6.28;;
70406;SDS011;57821;52.202;0.154;2023-08-24T05:55:10;13.23;;;6.75;;
70406;SDS011;57821;52.202;0.154;2023-08-24T05:57:57;17.83;;;6.50;;
70406;SDS011;57821;52.202;0.154;2023-08-24T06:00:44;12.48;;;5.47;;
70406;SDS011;57821;52.202;0.154;2023-08-24T06:03:31;14.30;;;6.82;;
70406;SDS011;57821;52.202;0.154;2023-08-24T06:06:17;17.20;;;7.25;;
70406;SDS011;57821;52.202;0.154;2023-08-24T06:09:04;12.18;;;6.28;;
70406;SDS011;57821;52.202;0.154;2023-08-24T06:11:54;15.23;;;6.85;;
70406;SDS011;57821;52.202;0.154;2023-08-24T06:14:41;12.65;;;6.20;;
70406;SDS011;57821;52.202;0.154;2023-08-24T06:17:28;14.75;;;6.80;;
70406;SDS011;57821;52.202;0.154;2023-08-24T06:20:14;17.58;;;6.40;;
70406;SDS011;57821;52.202;0.154;2023-08-24T06:23:01;11.40;;;5.60;;
70406;SDS011;57821;52.202;0.154;2023-08-24T06:25:48;16.05;;;6.88;;
70406;SDS011;57821;52.202;0.154;2023-08-24T06:28:35;18.10;;;7.85;;
70406;SDS011;57821;52.202;0.154;2023-08-24T06:31:22;14.88;;;5.60;;
70406;SDS011;57821;52.202;0.154;2023-08-24T06:34:09;13.38;;;5.95;;
70406;SDS011;57821;52.202;0.154;2023-08-24T06:36:56;16.00;;;6.15;;
70406;SDS011;57821;52.202;0.154;2023-08-24T06:39:47;14.25;;;5.88;;
70406;SDS011;57821;52.202;0.154;2023-08-24T06:42:34;12.23;;;5.35;;
70406;SDS011;57821;52.202;0.154;2023-08-24T06:45:21;14.98;;;5.82;;
70406;SDS011;57821;52.202;0.154;2023-08-24T06:48:08;22.27;;;6.65;;
70406;SDS011;57821;52.202;0.154;2023-08-24T06:50:55;15.13;;;5.40;;
70406;SDS011;57821;52.202;0.154;2023-08-24T06:53:42;11.40;;;5.63;;
70406;SDS011;57821;52.202;0.154;2023-08-24T06:56:29;12.80;;;5.28;;
70406;SDS011;57821;52.202;0.154;2023-08-24T06:59:16;9.98;;;5.05;;
70406;SDS011;57821;52.202;0.154;2023-08-24T07:02:02;12.93;;;4.60;;
70406;SDS011;57821;52.202;0.154;2023-08-24T07:04:49;11.88;;;5.88;;
70406;SDS011;57821;52.202;0.154;2023-08-24T07:07:36;14.40;;;4.68;;
70406;SDS011;57821;52.202;0.154;2023-08-24T07:10:23;12.23;;;5.50;;
70406;SDS011;57821;52.202;0.154;2023-08-24T07:13:10;11.32;;;5.07;;
70406;SDS011;57821;52.202;0.154;2023-08-24T07:15:57;10.88;;;5.00;;
70406;SDS011;57821;52.202;0.154;2023-08-24T07:18:44;9.45;;;5.13;;
70406;SDS011;57821;52.202;0.154;2023-08-24T07:21:30;13.25;;;5.10;;
70406;SDS011;57821;52.202;0.154;2023-08-24T07:24:17;14.80;;;5.40;;
70406;SDS011;57821;52.202;0.154;2023-08-24T07:27:11;14.50;;;4.90;;
70406;SDS011;57821;52.202;0.154;2023-08-24T07:29:57;12.90;;;5.05;;
70406;SDS011;57821;52.202;0.154;2023-08-24T07:32:44;11.93;;;4.57;;
70406;SDS011;57821;52.202;0.154;2023-08-24T07:35:31;12.50;;;5.22;;
70406;SDS011;57821;52.202;0.154;2023-08-24T07:38:18;13.32;;;5.20;;
70406;SDS011;57821;52.202;0.154;2023-08-24T07:41:05;11.00;;;4.45;;
70406;SDS011;57821;52.202;0.154;2023-08-24T07:43:52;17.27;;;5.70;;
70406;SDS011;57821;52.202;0.154;2023-08-24T07:46:39;10.25;;;4.43;;
70406;SDS011;57821;52.202;0.154;2023-08-24T07:49:26;10.90;;;4.30;;
70406;SDS011;57821;52.202;0.154;2023-08-24T07:52:13;10.82;;;4.55;;
70406;SDS011;57821;52.202;0.154;2023-08-24T07:54:59;8.60;;;4.00;;
70406;SDS011;57821;52.202;0.154;2023-08-24T07:57:46;10.27;;;4.10;;
70406;SDS011;57821;52.202;0.154;2023-08-24T08:00:34;10.02;;;4.32;;
70406;SDS011;57821;52.202;0.154;2023-08-24T08:03:21;10.77;;;4.32;;
70406;SDS011;57821;52.202;0.154;2023-08-24T08:06:08;13.73;;;4.28;;
70406;SDS011;57821;52.202;0.154;2023-08-24T08:08:55;10.95;;;4.30;;
70406;SDS011;57821;52.202;0.154;2023-08-24T08:11:42;11.95;;;4.43;;
70406;SDS011;57821;52.202;0.154;2023-08-24T08:14:29;14.38;;;3.70;;
70406;SDS011;57821;52.202;0.154;2023-08-24T08:17:16;10.80;;;3.95;;
70406;SDS011;57821;52.202;0.154;2023-08-24T08:20:03;14.82;;;4.40;;
70406;SDS011;57821;52.202;0.154;2023-08-24T08:22:50;11.88;;;3.70;;
70406;SDS011;57821;52.202;0.154;2023-08-24T08:25:38;13.85;;;4.80;;
70406;SDS011;57821;52.202;0.154;2023-08-24T08:28:25;10.90;;;4.22;;
70406;SDS011;57821;52.202;0.154;2023-08-24T08:31:12;13.88;;;5.38;;
70406;SDS011;57821;52.202;0.154;2023-08-24T08:33:59;14.80;;;4.25;;
70406;SDS011;57821;52.202;0.154;2023-08-24T08:36:46;10.55;;;4.60;;
70406;SDS011;57821;52.202;0.154;2023-08-24T08:39:33;14.82;;;4.35;;
70406;SDS011;57821;52.202;0.154;2023-08-24T08:42:20;10.75;;;4.40;;
70406;SDS011;57821;52.202;0.154;2023-08-24T08:45:08;9.52;;;4.22;;
70406;SDS011;57821;52.202;0.154;2023-08-24T08:47:57;10.82;;;4.50;;
70406;SDS011;57821;52.202;0.154;2023-08-24T08:50:46;13.25;;;3.80;;
70406;SDS011;57821;52.202;0.154;2023-08-24T08:53:35;13.68;;;4.28;;
70406;SDS011;57821;52.202;0.154;2023-08-24T08:56:22;10.95;;;3.95;;
70406;SDS011;57821;52.202;0.154;2023-08-24T08:59:10;12.25;;;4.20;;
70406;SDS011;57821;52.202;0.154;2023-08-24T09:02:00;19.23;;;4.80;;
70406;SDS011;57821;52.202;0.154;2023-08-24T09:04:50;16.02;;;4.03;;
70406;SDS011;57821;52.202;0.154;2023-08-24T09:07:41;12.25;;;4.28;;
70406;SDS011;57821;52.202;0.154;2023-08-24T09:10:28;10.40;;;4.53;;
70406;SDS011;57821;52.202;0.154;2023-08-24T09:13:15;14.50;;;4.10;;
70406;SDS011;57821;52.202;0.154;2023-08-24T09:16:06;15.60;;;4.07;;
70406;SDS011;57821;52.202;0.154;2023-08-24T09:21:40;15.48;;;6.65;;
70406;SDS011;57821;52.202;0.154;2023-08-24T09:24:30;15.70;;;5.38;;
70406;SDS011;57821;52.202;0.154;2023-08-24T09:27:21;16.98;;;4.38;;
70406;SDS011;57821;52.202;0.154;2023-08-24T09:30:09;14.88;;;3.97;;
70406;SDS011;57821;52.202;0.154;2023-08-24T09:33:00;14.57;;;4.82;;
70406;SDS011;57821;52.202;0.154;2023-08-24T09:35:53;17.70;;;4.78;;
70406;SDS011;57821;52.202;0.154;2023-08-24T09:38:46;11.95;;;4.78;;
70406;SDS011;57821;52.202;0.154;2023-08-24T09:41:40;14.23;;;4.57;;
70406;SDS011;57821;52.202;0.154;2023-08-24T09:44:28;10.80;;;4.68;;
70406;SDS011;57821;52.202;0.154;2023-08-24T09:47:15;15.98;;;4.65;;
70406;SDS011;57821;52.202;0.154;2023-08-24T09:50:04;15.07;;;5.30;;
70406;SDS011;57821;52.202;0.154;2023-08-24T09:52:51;18.50;;;6.50;;
70406;SDS011;57821;52.202;0.154;2023-08-24T09:55:40;12.25;;;6.40;;
70406;SDS011;57821;52.202;0.154;2023-08-24T09:58:30;13.33;;;5.93;;
70406;SDS011;57821;52.202;0.154;2023-08-24T10:01:18;12.93;;;5.80;;
70406;SDS011;57821;52.202;0.154;2023-08-24T10:04:06;14.85;;;6.00;;
70406;SDS011;57821;52.202;0.154;2023-08-24T10:06:56;13.40;;;5.68;;
70406;SDS011;57821;52.202;0.154;2023-08-24T10:12:59;13.38;;;5.07;;
70406;SDS011;57821;52.202;0.154;2023-08-24T10:15:51;17.38;;;5.20;;
70406;SDS011;57821;52.202;0.154;2023-08-24T10:18:40;10.25;;;4.43;;
70406;SDS011;57821;52.202;0.154;2023-08-24T10:21:28;13.50;;;4.30;;
70406;SDS011;57821;52.202;0.154;2023-08-24T10:24:17;13.73;;;4.22;;
70406;SDS011;57821;52.202;0.154;2023-08-24T10:27:04;12.70;;;4.35;;
70406;SDS011;57821;52.202;0.154;2023-08-24T10:29:53;9.35;;;3.40;;
70406;SDS011;57821;52.202;0.154;2023-08-24T10:32:40;10.30;;;3.58;;
70406;SDS011;57821;52.202;0.154;2023-08-24T10:35:29;9.80;;;3.53;;
70406;SDS011;57821;52.202;0.154;2023-08-24T10:38:23;9.40;;;3.50;;
70406;SDS011;57821;52.202;0.154;2023-08-24T10:41:16;14.02;;;4.28;;
70406;SDS011;57821;52.202;0.154;2023-08-24T10:44:06;10.27;;;3.28;;
70406;SDS011;57821;52.202;0.154;2023-08-24T10:50:05;7.43;;;2.72;;
70406;SDS011;57821;52.202;0.154;2023-08-24T10:52:52;9.07;;;3.45;;
70406;SDS011;57821;52.202;0.154;2023-08-24T10:55:39;6.57;;;2.03;;
70406;SDS011;57821;52.202;0.154;2023-08-24T10:58:26;9.38;;;2.92;;
70406;SDS011;57821;52.202;0.154;2023-08-24T11:01:17;10.27;;;3.90;;
70406;SDS011;57821;52.202;0.154;2023-08-24T11:04:05;14.00;;;3.75;;
70406;SDS011;57821;52.202;0.154;2023-08-24T11:09:49;11.55;;;2.15;;
70406;SDS011;57821;52.202;0.154;2023-08-24T11:15:49;5.80;;;2.05;;
70406;SDS011;57821;52.202;0.154;2023-08-24T11:18:39;9.40;;;2.20;;
70406;SDS011;57821;52.202;0.154;2023-08-24T11:21:26;5.38;;;1.90;;
70406;SDS011;57821;52.202;0.154;2023-08-24T11:24:14;7.18;;;2.20;;
70406;SDS011;57821;52.202;0.154;2023-08-24T11:27:02;7.13;;;2.72;;
70406;SDS011;57821;52.202;0.154;2023-08-24T11:30:08;8.45;;;1.95;;
70406;SDS011;57821;52.202;0.154;2023-08-24T11:32:55;7.82;;;2.00;;
70406;SDS011;57821;52.202;0.154;2023-08-24T11:35:43;6.10;;;1.90;;
70406;SDS011;57821;52.202;0.154;2023-08-24T11:38:38;6.70;;;2.00;;
70406;SDS011;57821;52.202;0.154;2023-08-24T11:41:26;5.57;;;1.77;;
70406;SDS011;57821;52.202;0.154;2023-08-24T11:44:13;8.82;;;1.70;;
70406;SDS011;57821;52.202;0.154;2023-08-24T11:47:14;5.30;;;2.08;;
70406;SDS011;57821;52.202;0.154;2023-08-24T11:50:02;6.55;;;1.92;;
70406;SDS011;57821;52.202;0.154;2023-08-24T11:52:49;5.75;;;2.05;;
70406;SDS011;57821;52.202;0.154;2023-08-24T11:55:39;8.10;;;2.10;;
70406;SDS011;57821;52.202;0.154;2023-08-24T11:58:38;5.80;;;1.52;;
70406;SDS011;57821;52.202;0.154;2023-08-24T12:01:28;4.75;;;1.70;;
70406;SDS011;57821;52.202;0.154;2023-08-24T12:04:15;9.50;;;1.80;;
70406;SDS011;57821;52.202;0.154;2023-08-24T12:07:07;7.22;;;1.88;;
70406;SDS011;57821;52.202;0.154;2023-08-24T12:10:01;9.32;;;1.92;;
70406;SDS011;57821;52.202;0.154;2023-08-24T12:12:48;5.75;;;1.70;;
70406;SDS011;57821;52.202;0.154;2023-08-24T12:15:36;6.28;;;1.70;;
70406;SDS011;57821;52.202;0.154;2023-08-24T12:18:23;4.63;;;1.58;;
70406;SDS011;57821;52.202;0.154;2023-08-24T12:21:11;4.60;;;1.23;;
70406;SDS011;57821;52.202;0.154;2023-08-24T12:24:07;6.88;;;1.45;;
70406;SDS011;57821;52.202;0.154;2023-08-24T12:26:57;5.35;;;1.70;;
70406;SDS011;57821;52.202;0.154;2023-08-24T12:32:44;4.78;;;1.10;;
70406;SDS011;57821;52.202;0.154;2023-08-24T12:38:19;6.97;;;1.50;;
70406;SDS011;57821;52.202;0.154;2023-08-24T12:41:06;6.47;;;1.75;;
70406;SDS011;57821;52.202;0.154;2023-08-24T12:43:53;7.13;;;1.48;;
70406;SDS011;57821;52.202;0.154;2023-08-24T12:46:41;8.10;;;1.70;;
70406;SDS011;57821;52.202;0.154;2023-08-24T12:49:28;6.07;;;1.65;;
70406;SDS011;57821;52.202;0.154;2023-08-24T12:52:15;5.45;;;1.42;;
70406;SDS011;57821;52.202;0.154;2023-08-24T12:55:02;8.65;;;1.50;;
70406;SDS011;57821;52.202;0.154;2023-08-24T12:57:49;4.00;;;1.40;;
70406;SDS011;57821;52.202;0.154;2023-08-24T13:00:36;8.55;;;2.00;;
70406;SDS011;57821;52.202;0.154;2023-08-24T13:03:23;5.93;;;1.70;;
70406;SDS011;57821;52.202;0.154;2023-08-24T13:06:10;6.35;;;1.60;;
70406;SDS011;57821;52.202;0.154;2023-08-24T13:09:10;5.93;;;1.30;;
70406;SDS011;57821;52.202;0.154;2023-08-24T13:11:56;6.47;;;1.48;;
70406;SDS011;57821;52.202;0.154;2023-08-24T13:14:43;7.75;;;1.25;;
70406;SDS011;57821;52.202;0.154;2023-08-24T13:17:30;7.93;;;2.00;;
70406;SDS011;57821;52.202;0.154;2023-08-24T13:20:17;6.35;;;1.50;;
70406;SDS011;57821;52.202;0.154;2023-08-24T13:23:04;8.40;;;1.85;;
70406;SDS011;57821;52.202;0.154;2023-08-24T13:25:51;7.03;;;1.60;;
70406;SDS011;57821;52.202;0.154;2023-08-24T13:28:38;7.15;;;1.70;;
70406;SDS011;57821;52.202;0.154;2023-08-24T13:31:25;5.25;;;1.50;;
70406;SDS011;57821;52.202;0.154;2023-08-24T13:34:12;4.68;;;1.30;;
70406;SDS011;57821;52.202;0.154;2023-08-24T13:36:59;9.65;;;1.30;;
70406;SDS011;57821;52.202;0.154;2023-08-24T13:39:46;6.97;;;1.33;;
70406;SDS011;57821;52.202;0.154;2023-08-24T13:42:33;5.30;;;1.42;;
70406;SDS011;57821;52.202;0.154;2023-08-24T13:45:20;6.63;;;1.50;;
70406;SDS011;57821;52.202;0.154;2023-08-24T13:48:07;7.10;;;1.48;;
70406;SDS011;57821;52.202;0.154;2023-08-24T13:50:54;4.75;;;1.63;;
70406;SDS011;57821;52.202;0.154;2023-08-24T13:53:41;5.22;;;1.45;;
70406;SDS011;57821;52.202;0.154;2023-08-24T13:56:27;10.02;;;1.92;;
70406;SDS011;57821;52.202;0.154;2023-08-24T13:59:14;26.58;;;8.82;;
70406;SDS011;57821;52.202;0.154;2023-08-24T14:02:01;11.82;;;6.40;;
70406;SDS011;57821;52.202;0.154;2023-08-24T14:04:48;31.40;;;21.80;;
70406;SDS011;57821;52.202;0.154;2023-08-24T14:07:35;18.15;;;7.63;;
70406;SDS011;57821;52.202;0.154;2023-08-24T14:10:23;19.95;;;9.43;;
70406;SDS011;57821;52.202;0.154;2023-08-24T14:13:09;18.15;;;10.88;;
70406;SDS011;57821;52.202;0.154;2023-08-24T14:15:56;5.50;;;2.03;;
70406;SDS011;57821;52.202;0.154;2023-08-24T14:18:44;8.40;;;1.50;;
70406;SDS011;57821;52.202;0.154;2023-08-24T14:21:32;7.63;;;1.63;;
70406;SDS011;57821;52.202;0.154;2023-08-24T14:24:22;6.23;;;1.50;;
70406;SDS011;57821;52.202;0.154;2023-08-24T14:27:10;4.68;;;1.02;;
70406;SDS011;57821;52.202;0.154;2023-08-24T14:29:57;13.27;;;1.45;;
70406;SDS011;57821;52.202;0.154;2023-08-24T14:32:44;5.38;;;1.50;;
70406;SDS011;57821;52.202;0.154;2023-08-24T14:35:31;4.10;;;1.10;;
70406;SDS011;57821;52.202;0.154;2023-08-24T14:38:20;4.82;;;1.17;;
70406;SDS011;57821;52.202;0.154;2023-08-24T14:41:07;5.85;;;1.23;;
70406;SDS011;57821;52.202;0.154;2023-08-24T14:43:58;4.30;;;1.40;;
70406;SDS011;57821;52.202;0.154;2023-08-24T14:46:44;7.72;;;1.98;;
70406;SDS011;57821;52.202;0.154;2023-08-24T14:49:32;4.38;;;1.45;;
70406;SDS011;57821;52.202;0.154;2023-08-24T14:52:18;3.97;;;1.20;;
70406;SDS011;57821;52.202;0.154;2023-08-24T14:55:06;8.20;;;1.27;;
70406;SDS011;57821;52.202;0.154;2023-08-24T14:57:54;5.00;;;1.30;;
70406;SDS011;57821;52.202;0.154;2023-08-24T15:00:41;5.90;;;1.52;;
70406;SDS011;57821;52.202;0.154;2023-08-24T15:03:28;6.68;;;1.13;;
70406;SDS011;57821;52.202;0.154;2023-08-24T15:06:15;6.88;;;1.50;;
70406;SDS011;57821;52.202;0.154;2023-08-24T15:09:02;6.05;;;1.20;;
70406;SDS011;57821;52.202;0.154;2023-08-24T15:11:49;3.95;;;0.98;;
70406;SDS011;57821;52.202;0.154;2023-08-24T15:14:36;4.68;;;0.93;;
70406;SDS011;57821;52.202;0.154;2023-08-24T15:17:23;5.20;;;0.95;;
70406;SDS011;57821;52.202;0.154;2023-08-24T15:20:10;4.75;;;1.10;;
70406;SDS011;57821;52.202;0.154;2023-08-24T15:22:58;9.32;;;2.75;;
70406;SDS011;57821;52.202;0.154;2023-08-24T15:25:45;9.20;;;1.25;;
70406;SDS011;57821;52.202;0.154;2023-08-24T15:31:57;3.58;;;1.20;;
70406;SDS011;57821;52.202;0.154;2023-08-24T15:34:43;4.47;;;1.30;;
70406;SDS011;57821;52.202;0.154;2023-08-24T15:37:30;4.90;;;1.20;;
70406;SDS011;57821;52.202;0.154;2023-08-24T15:40:17;3.58;;;1.10;;
70406;SDS011;57821;52.202;0.154;2023-08-24T15:43:05;3.58;;;1.25;;
70406;SDS011;57821;52.202;0.154;2023-08-24T15:45:53;3.63;;;1.20;;
70406;SDS011;57821;52.202;0.154;2023-08-24T15:48:40;6.43;;;1.00;;
70406;SDS011;57821;52.202;0.154;2023-08-24T15:51:27;7.38;;;1.10;;
70406;SDS011;57821;52.202;0.154;2023-08-24T15:54:13;3.63;;;1.08;;
70406;SDS011;57821;52.202;0.154;2023-08-24T15:57:00;4.15;;;1.20;;
70406;SDS011;57821;52.202;0.154;2023-08-24T15:59:47;5.32;;;1.20;;
70406;SDS011;57821;52.202;0.154;2023-08-24T16:02:34;3.63;;;1.08;;
70406;SDS011;57821;52.202;0.154;2023-08-24T16:05:22;4.88;;;1.27;;
70406;SDS011;57821;52.202;0.154;2023-08-24T16:08:09;5.75;;;1.15;;
70406;SDS011;57821;52.202;0.154;2023-08-24T16:10:56;6.80;;;1.50;;
70406;SDS011;57821;52.202;0.154;2023-08-24T16:13:43;6.00;;;1.50;;
70406;SDS011;57821;52.202;0.154;2023-08-24T16:16:30;6.50;;;1.30;;
70406;SDS011;57821;52.202;0.154;2023-08-24T16:19:17;5.20;;;1.38;;
70406;SDS011;57821;52.202;0.154;2023-08-24T16:22:04;3.63;;;1.00;;
70406;SDS011;57821;52.202;0.154;2023-08-24T16:24:51;4.20;;;1.17;;
70406;SDS011;57821;52.202;0.154;2023-08-24T16:27:38;8.95;;;1.60;;
70406;SDS011;57821;52.202;0.154;2023-08-24T16:30:25;5.10;;;0.98;;
70406;SDS011;57821;52.202;0.154;2023-08-24T16:33:12;4.28;;;1.63;;
70406;SDS011;57821;52.202;0.154;2023-08-24T16:35:58;4.93;;;1.42;;
70406;SDS011;57821;52.202;0.154;2023-08-24T16:38:45;6.90;;;1.45;;
70406;SDS011;57821;52.202;0.154;2023-08-24T16:41:32;10.18;;;2.85;;
70406;SDS011;57821;52.202;0.154;2023-08-24T16:44:19;5.93;;;1.40;;
70406;SDS011;57821;52.202;0.154;2023-08-24T16:47:06;4.28;;;1.27;;
70406;SDS011;57821;52.202;0.154;2023-08-24T16:49:53;5.05;;;1.30;;
70406;SDS011;57821;52.202;0.154;2023-08-24T16:52:40;5.47;;;1.15;;
70406;SDS011;57821;52.202;0.154;2023-08-24T16:55:26;4.60;;;1.00;;
70406;SDS011;57821;52.202;0.154;2023-08-24T16:58:13;10.50;;;3.03;;
70406;SDS011;57821;52.202;0.154;2023-08-24T17:01:06;6.63;;;1.75;;
70406;SDS011;57821;52.202;0.154;2023-08-24T17:03:54;9.38;;;2.70;;
70406;SDS011;57821;52.202;0.154;2023-08-24T17:06:41;4.47;;;1.30;;
70406;SDS011;57821;52.202;0.154;2023-08-24T17:09:28;6.60;;;1.20;;